Flight Track Log - Related Links

Times and Time Zones

All times are in EDT time to prevent confusion due to time zone crossing. See the SWA718 flight status page for this flight to view local times or setup timezone preferences in your user account.

Time Position Orientation Groundspeed Altitude Reporting Facility
EDT Latitude Longitude Course Direction KTS MPH feet Rate Location/Type
Fri 12:07:36 AM 41.7772 -87.8653 283° West 231 266 5,800  Level Chicago Center
Fri 12:08:37 AM 41.8183 -87.9708 298° West 278 320 9,600 3,049 Climbing Chicago Center
Fri 12:09:38 AM 41.8319 -88.0819 279° West 307 353 12,000 3,393 Climbing Chicago Center
Fri 12:10:39 AM 41.8436 -88.1961 278° West 313 360 16,500 3,689 Climbing Chicago Center
Fri 12:11:00 AM 41.7413 -88.3973 264° West  Level FlightAware Approximate
Fri 12:11:40 AM 41.8614 -88.3119 282° West 317 365 19,500  Level Chicago Center
Fri 12:12:41 AM 41.8642 -88.4342 272° West 328 377 22,200 2,311 Climbing Chicago Center
Fri 12:13:42 AM 41.8689 -88.5633 273° West 345 397 24,200 2,033 Climbing Chicago Center
Fri 12:14:42 AM 41.8739 -88.7008 273° West 367 422 26,300 2,231 Climbing Chicago Center
Fri 12:15:43 AM 41.8794 -88.8439 273° West 382 440 28,700 2,410 Climbing Chicago Center
Fri 12:16:44 AM 41.8686 -89.0033 265° West 365 420 31,200 1,820 Climbing Chicago Center
Fri 12:17:45 AM 41.8594 -89.1411 265° West 370 426 32,400 1,475 Climbing Chicago Center
Fri 12:18:46 AM 41.8500 -89.2828 265° West 382 440 34,200 1,672 Climbing Chicago Center
Fri 12:19:47 AM 41.8414 -89.4231 265° West 381 438 35,800 885 Climbing Chicago Center
Fri 12:20:48 AM 41.8314 -89.5631 265° West 382 440 36,000 98 Climbing Chicago Center
Fri 12:21:49 AM 41.8217 -89.7042 265° West 381 438 36,000  Level Chicago Center
Fri 12:22:50 AM 41.8111 -89.8433 264° West 379 436 36,000  Level Chicago Center
Fri 12:23:51 AM 41.8036 -89.9797 266° West 380 437 36,000  Level Chicago Center
Fri 12:24:52 AM 41.7917 -90.1206 264° West 376 433 36,000  Level Chicago Center
Fri 12:25:52 AM 41.7825 -90.2569 265° West 376 433 36,000  Level Chicago Center
Fri 12:26:53 AM 41.7683 -90.4244 264° West 374 430 36,000  Level Chicago Center
Fri 12:27:54 AM 41.7578 -90.5622 264° West 373 429 36,000  Level Chicago Center
Fri 12:28:55 AM 41.7464 -90.6978 264° West 374 430 36,000  Level Chicago Center
Fri 12:29:56 AM 41.7358 -90.8361 264° West 375 432 36,000  Level Chicago Center
Fri 12:30:57 AM 41.7244 -90.9731 264° West 373 429 36,000  Level Chicago Center
Fri 12:31:58 AM 41.7125 -91.1122 263° West 375 432 36,000  Level Chicago Center
Fri 12:32:59 AM 41.7011 -91.2536 264° West 380 437 36,000  Level Chicago Center
Fri 12:33:59 AM 41.6894 -91.3908 264° West 377 434 36,000  Level Chicago Center
Fri 12:35:00 AM 41.6769 -91.5308 263° West 380 437 36,000  Level Chicago Center
Fri 12:36:01 AM 41.6650 -91.6694 263° West 378 435 36,000  Level Chicago Center
Fri 12:37:02 AM 41.6519 -91.8108 263° West 381 438 36,000  Level Chicago Center
Fri 12:38:03 AM 41.6397 -91.9525 263° West 384 442 36,000  Level Chicago Center
Fri 12:39:03 AM 41.6242 -92.1211 263° West 384 442 36,000  Level Chicago Center
Fri 12:40:04 AM 41.6117 -92.2611 263° West 382 440 36,000  Level Chicago Center
Fri 12:41:05 AM 41.5975 -92.4017 262° West 383 441 36,000  Level Chicago Center
Fri 12:42:06 AM 41.5839 -92.5400 263° West 379 436 36,000  Level Chicago Center
Fri 12:43:04 AM 41.5711 -92.6786 263° West 379 436 36,000  Level Minneapolis Center
Fri 12:44:04 AM 41.5567 -92.8156 262° West 378 435 36,000  Level Minneapolis Center
Fri 12:45:05 AM 41.5433 -92.9528 263° West 377 434 36,000  Level Minneapolis Center
Fri 12:46:06 AM 41.5292 -93.0933 262° West 381 438 36,000  Level Minneapolis Center
Fri 12:47:07 AM 41.5153 -93.2328 262° West 383 441 36,000  Level Minneapolis Center
Fri 12:48:07 AM 41.5003 -93.3728 262° West 383 441 36,000  Level Minneapolis Center
Fri 12:49:08 AM 41.4853 -93.5139 262° West 387 445 36,000  Level Minneapolis Center
Fri 12:50:09 AM 41.4719 -93.6517 263° West 382 440 36,000 -397 Level Minneapolis Center
Fri 12:51:09 AM 41.4531 -93.8228 262° West 389 448 35,200 -1,983 Descending Minneapolis Center
Fri 12:52:10 AM 41.4386 -93.9650 262° West 390 449 32,000 -3,246 Descending Minneapolis Center
Fri 12:53:11 AM 41.4225 -94.1092 262° West 394 453 28,600 -2,902 Descending Minneapolis Center
Fri 12:54:12 AM 41.4072 -94.2486 262° West 393 452 26,100 -2,529 Descending Minneapolis Center
Fri 12:55:12 AM 41.3919 -94.3878 262° West 384 442 23,500 -2,579 Descending Minneapolis Center
Fri 12:56:13 AM 41.3739 -94.5300 260° West 386 444 20,900 -2,262 Descending Minneapolis Center
Fri 12:57:14 AM 41.3567 -94.6692 261° West 385 443 18,900 -2,331 Descending Minneapolis Center
Fri 12:58:14 AM 41.3431 -94.7986 262° West 372 428 16,200 -1,438 Descending Minneapolis Center
Fri 12:59:15 AM 41.3289 -94.9281 262° West 360 414 16,000 -1,328 Descending Minneapolis Center
Fri 01:00:16 AM 41.3133 -95.0608 261° West 361 415 13,500 -2,479 Descending Minneapolis Center
Fri 01:01:16 AM 41.2892 -95.1900 256° West 361 415 11,000 -1,686 Descending Minneapolis Center
Fri 01:02:17 AM 41.2633 -95.3042 253° West 344 396 10,100 -1,128 Descending Minneapolis Center
Fri 01:03:29 AM 41.2408 -95.4350 257° West 255 293 8,500 -1,438 Descending Minneapolis Center
Fri 01:04:18 AM 41.2217 -95.4908 245° Southwest 276 318 7,200 -1,881 Descending Minneapolis Center
Fri 01:04:36 AM 41.2119 -95.5300 252° West 258 297 6,400 -1,869 Descending Minneapolis Center
Fri 01:05:19 AM 41.1897 -95.5764 238° Southwest 264 304 5,300 -1,800 Descending Minneapolis Center
Fri 01:05:36 AM 41.1781 -95.6144 248° West 260 299 4,600 -1,279 Descending Minneapolis Center
Fri 01:06:20 AM 41.1569 -95.6594 238° Southwest 259 298 4,000 -787 Descending Minneapolis Center
Fri 01:06:37 AM 41.1478 -95.6931 250° West 236 272 3,800 -462 Descending Minneapolis Center
Fri 01:07:38 AM 41.1539 -95.7531 278° West 166 191 3,400 -462 Descending Minneapolis Center
Fri 01:08:21 AM 41.1725 -95.7731 321° Northwest 185 213 3,000 -500 Descending Minneapolis Center
Fri 01:08:38 AM 41.1900 -95.7906 323° Northwest 131 151 2,900 -197 Descending Minneapolis Center
Fri 01:09:22 AM 41.2103 -95.8081 327° Northwest 155 178 2,800 -436 Descending Minneapolis Center
Fri 01:11:23 AM 41.2664 -95.8611 325° Northwest 131 151 1,700 -583 Descending Minneapolis Center
Fri 01:11:46 AM 41.2750 -95.8747 310° West 120 138 1,400 -689 Descending Minneapolis Center
Fri 01:12:24 AM 41.2933 -95.8858 336° Northwest 124 143 1,000 -632 Descending Minneapolis Center

Login

Don't have an account? Register now (free) for customized features, flight alerts, and more!